Time;durP1;ratioP1;P1;durP2;ratioP2;P2;SDS_P1;SDS_P2;PMS_P1;PMS_P2;Temp;Humidity;BMP_temperature;BMP_pressure;BME280_temperature;BME280_humidity;BME280_pressure;Samples;Min_cycle;Max_cycle;Signal;HPM_P1;HPM_P2
2021/10/25 00:00:56;;;;;;;14.38;7.30;;;;;;;3.46;nan;102411.47;5111174;27;20038;-82
2021/10/25 00:03:22;;;;;;;17.40;8.48;;;;;;;3.44;nan;102416.09;5114636;27;20530;-83
2021/10/25 00:05:48;;;;;;;20.27;7.05;;;;;;;3.46;nan;102417.59;5110319;27;20484;-83
2021/10/25 00:08:13;;;;;;;18.23;7.40;;;;;;;3.45;nan;102423.06;5111099;27;20027;-83
2021/10/25 00:10:42;;;;;;;12.43;6.85;;;;;;;3.44;nan;102413.44;5127251;27;20023;-82
2021/10/25 00:13:07;;;;;;;16.60;7.50;;;;;;;3.42;nan;102404.81;5107136;28;20020;-83
2021/10/25 00:15:33;;;;;;;15.32;7.45;;;;;;;3.44;nan;102405.50;5110371;28;20161;-82
2021/10/25 00:17:58;;;;;;;16.52;7.32;;;;;;;3.43;nan;102406.50;5110606;27;20458;-84
2021/10/25 00:20:24;;;;;;;15.30;6.65;;;;;;;3.41;nan;102408.44;5129282;27;20091;-82
2021/10/25 00:22:50;;;;;;;16.30;7.00;;;;;;;3.47;nan;102405.16;5110115;27;20020;-83
2021/10/25 00:25:15;;;;;;;15.55;6.97;;;;;;;3.46;nan;102406.16;5126437;28;20027;-83
2021/10/25 00:27:40;;;;;;;25.42;7.85;;;;;;;3.39;nan;102395.34;5105418;28;20373;-83
2021/10/25 00:30:07;;;;;;;20.70;7.93;;;;;;;3.45;nan;102401.84;5106150;27;20065;-82
2021/10/25 00:32:33;;;;;;;18.88;7.95;;;;;;;3.45;nan;102393.91;5109852;27;20031;-84
2021/10/25 00:34:58;;;;;;;13.25;6.72;;;;;;;3.44;nan;102392.25;5109268;27;20034;-82
2021/10/25 00:37:24;;;;;;;15.95;6.88;;;;;;;3.40;nan;102388.22;5113183;27;20100;-83
2021/10/25 00:39:49;;;;;;;14.60;7.50;;;;;;;3.41;nan;102389.88;5110450;27;20035;-83
2021/10/25 00:42:15;;;;;;;19.42;7.72;;;;;;;3.37;nan;102394.69;5112004;27;20076;-83
2021/10/25 00:44:42;;;;;;;16.58;7.68;;;;;;;3.36;nan;102394.84;5130799;27;20051;-82
2021/10/25 00:47:08;;;;;;;12.80;7.50;;;;;;;3.33;nan;102391.53;5112911;27;20019;-83
2021/10/25 00:49:34;;;;;;;18.95;7.05;;;;;;;3.31;nan;102393.53;5111327;27;20027;-83
2021/10/25 00:52:00;;;;;;;19.25;8.50;;;;;;;3.29;nan;102390.19;5112831;27;21797;-82
2021/10/25 00:54:26;;;;;;;16.58;7.47;;;;;;;3.30;nan;102386.56;5130198;27;20038;-82
2021/10/25 00:56:51;;;;;;;14.02;6.97;;;;;;;3.31;nan;102388.22;5129473;27;20027;-82
2021/10/25 00:59:17;;;;;;;19.67;7.32;;;;;;;3.28;nan;102380.59;5112771;27;20024;-83
2021/10/25 01:01:42;;;;;;;18.05;7.25;;;;;;;3.34;nan;102376.47;5128970;27;20108;-83
2021/10/25 01:04:09;;;;;;;15.20;7.35;;;;;;;3.32;nan;102378.44;5111271;27;20076;-82
2021/10/25 01:06:37;;;;;;;16.55;7.35;;;;;;;3.32;nan;102379.28;5113982;27;20453;-83
2021/10/25 01:09:03;;;;;;;14.90;6.93;;;;;;;3.28;nan;102380.59;5129364;27;20019;-82
2021/10/25 01:11:28;;;;;;;16.33;6.32;;;;;;;3.29;nan;102381.44;5108713;27;20038;-83
2021/10/25 01:13:54;;;;;;;16.40;6.85;;;;;;;3.27;nan;102380.75;5112828;27;20126;-83
2021/10/25 01:16:20;;;;;;;19.52;8.55;;;;;;;3.26;nan;102379.94;5112649;27;20035;-83
2021/10/25 01:18:48;;;;;;;18.27;7.53;;;;;;;3.24;nan;102381.09;5113593;27;20122;-83
2021/10/25 01:21:13;;;;;;;16.58;7.47;;;;;;;3.23;nan;102374.97;5113113;27;20519;-83
2021/10/25 01:23:39;;;;;;;16.92;6.93;;;;;;;3.23;nan;102380.25;5112247;27;20059;-83
2021/10/25 01:26:05;;;;;;;13.02;7.00;;;;;;;3.22;nan;102378.56;5109925;28;20363;-82
2021/10/25 01:28:31;;;;;;;16.92;7.75;;;;;;;3.21;nan;102371.59;5114351;22;20052;-83
2021/10/25 01:30:57;;;;;;;20.13;7.93;;;;;;;3.20;nan;102369.94;5075338;28;20032;-83
2021/10/25 01:33:23;;;;;;;15.07;7.72;;;;;;;3.25;nan;102370.31;5075874;28;20112;-84
2021/10/25 01:35:49;;;;;;;20.95;7.90;;;;;;;3.23;nan;102368.81;5080519;28;20116;-83
2021/10/25 01:38:14;;;;;;;20.73;8.00;;;;;;;3.18;nan;102369.28;5081126;28;20095;-84
2021/10/25 01:40:40;;;;;;;18.15;7.40;;;;;;;3.17;nan;102361.50;5063164;28;20635;-83
2021/10/25 01:43:06;;;;;;;21.10;7.75;;;;;;;3.12;nan;102362.00;5084700;28;20106;-83
2021/10/25 01:45:33;;;;;;;17.15;8.10;;;;;;;3.15;nan;102353.72;5080561;28;20040;-83
2021/10/25 01:47:59;;;;;;;14.00;7.32;;;;;;;3.14;nan;102360.00;5060782;28;20082;-83
2021/10/25 01:50:25;;;;;;;21.10;8.57;;;;;;;3.13;nan;102350.41;5071771;28;20032;-83
2021/10/25 01:52:50;;;;;;;16.95;7.07;;;;;;;3.09;nan;102351.72;5085687;28;20032;-83
2021/10/25 01:55:16;;;;;;;16.13;7.60;;;;;;;3.04;nan;102354.81;5069240;28;20026;-83
2021/10/25 01:57:42;;;;;;;19.65;7.30;;;;;;;3.05;nan;102355.66;5071960;28;20110;-82
2021/10/25 02:00:08;;;;;;;17.08;7.60;;;;;;;3.07;nan;102342.28;5071704;28;20036;-83
2021/10/25 02:02:33;;;;;;;14.85;7.40;;;;;;;3.05;nan;102342.41;5081738;28;20032;-83
2021/10/25 02:05:02;;;;;;;13.73;7.60;;;;;;;3.06;nan;102333.50;5081040;28;20580;-83
2021/10/25 02:07:28;;;;;;;13.73;6.57;;;;;;;3.09;nan;102338.47;5065204;28;20089;-83
2021/10/25 02:09:54;;;;;;;15.75;7.72;;;;;;;3.08;nan;102336.00;5064457;28;20016;-83
2021/10/25 02:12:20;;;;;;;19.45;8.18;;;;;;;3.03;nan;102331.16;5085049;28;20023;-83
2021/10/25 02:14:46;;;;;;;14.77;7.80;;;;;;;3.00;nan;102323.53;5076407;28;20114;-83
2021/10/25 02:17:11;;;;;;;13.93;7.22;;;;;;;2.99;nan;102324.53;5066443;28;20020;-83
2021/10/25 02:19:37;;;;;;;12.80;8.05;;;;;;;2.95;nan;102323.19;5075646;28;20032;-83
2021/10/25 02:22:03;;;;;;;14.75;7.22;;;;;;;2.91;nan;102322.69;5068502;28;20028;-83
2021/10/25 02:24:30;;;;;;;17.17;7.78;;;;;;;2.95;nan;102317.91;5078429;28;20102;-83
2021/10/25 02:26:56;;;;;;;14.52;7.53;;;;;;;2.92;nan;102310.28;5068818;28;20020;-83
2021/10/25 02:29:21;;;;;;;16.65;8.02;;;;;;;2.86;nan;102308.25;5086956;28;20043;-83
2021/10/25 02:31:47;;;;;;;19.73;8.00;;;;;;;2.80;nan;102315.00;5104379;27;20024;-83
2021/10/25 02:34:12;;;;;;;20.50;7.85;;;;;;;2.79;nan;102304.59;5103890;27;20495;-83
2021/10/25 02:36:38;;;;;;;17.10;7.57;;;;;;;2.79;nan;102301.94;5086573;28;20051;-83
2021/10/25 02:39:04;;;;;;;14.23;6.47;;;;;;;2.77;nan;102304.75;5085618;28;20394;-83
2021/10/25 02:41:29;;;;;;;17.98;7.72;;;;;;;2.79;nan;102294.81;5083075;28;20050;-83
2021/10/25 02:43:55;;;;;;;19.23;8.20;;;;;;;2.77;nan;102294.16;5085632;27;20039;-83
2021/10/25 02:46:21;;;;;;;17.45;7.10;;;;;;;2.81;nan;102287.56;5106437;27;20455;-84
2021/10/25 02:48:47;;;;;;;19.77;7.47;;;;;;;2.83;nan;102292.69;5084400;28;20362;-83
2021/10/25 02:51:13;;;;;;;21.42;7.68;;;;;;;2.81;nan;102287.56;5086362;28;20034;-82
2021/10/25 02:53:38;;;;;;;14.15;7.63;;;;;;;2.77;nan;102283.56;5104235;28;20026;-83
2021/10/25 02:56:05;;;;;;;14.40;7.85;;;;;;;2.71;nan;102292.16;5092453;28;20396;-83
2021/10/25 02:58:31;;;;;;;15.63;7.72;;;;;;;2.68;nan;102290.63;5074984;28;20028;-82
2021/10/25 03:00:57;;;;;;;16.65;8.45;;;;;;;2.66;nan;102292.63;5087064;28;20409;-82
2021/10/25 03:03:23;;;;;;;15.95;7.88;;;;;;;2.67;nan;102291.63;5086206;28;20039;-83
2021/10/25 03:05:49;;;;;;;20.92;8.13;;;;;;;2.64;nan;102284.00;5085370;28;20092;-83
2021/10/25 03:08:14;;;;;;;18.33;7.40;;;;;;;2.64;nan;102284.00;5085243;27;20041;-83
2021/10/25 03:10:40;;;;;;;16.80;6.82;;;;;;;2.59;nan;102285.47;5105166;28;20023;-83
2021/10/25 03:13:06;;;;;;;12.77;7.35;;;;;;;2.55;nan;102284.97;5088193;28;20080;-83
2021/10/25 03:15:32;;;;;;;24.67;8.80;;;;;;;2.51;nan;102283.59;5096539;27;20043;-83
2021/10/25 03:17:57;;;;;;;14.27;7.20;;;;;;;2.56;nan;102280.50;5080674;28;20097;-83
2021/10/25 03:20:23;;;;;;;18.13;7.32;;;;;;;2.50;nan;102279.28;5087187;28;20042;-83
2021/10/25 03:22:48;;;;;;;19.63;7.40;;;;;;;2.49;nan;102282.94;5094879;28;20024;-83
2021/10/25 03:25:14;;;;;;;16.17;7.78;;;;;;;2.48;nan;102273.34;5086124;28;20117;-83
2021/10/25 03:27:40;;;;;;;17.60;8.07;;;;;;;2.41;nan;102272.31;5086251;28;20020;-83
2021/10/25 03:30:07;;;;;;;15.65;7.53;;;;;;;2.41;nan;102267.84;5080912;28;20016;-83
2021/10/25 03:32:33;;;;;;;17.05;6.70;;;;;;;2.45;nan;102268.38;5087939;28;20455;-84
2021/10/25 03:34:58;;;;;;;17.50;8.25;;;;;;;2.44;nan;102272.00;5100891;28;20149;-82
2021/10/25 03:37:24;;;;;;;14.82;7.05;;;;;;;2.42;nan;102269.50;5081469;28;20028;-83
2021/10/25 03:39:51;;;;;;;16.88;7.75;;;;;;;2.35;nan;102271.13;5095643;28;20058;-82
2021/10/25 03:42:30;;;;;;;16.90;8.25;;;;;;;2.39;nan;102266.34;5097318;28;20020;-83
2021/10/25 03:47:30;;;;;;;20.63;8.27;;;;;;;2.30;nan;102276.03;5101687;28;20026;-83
2021/10/25 03:50:05;;;;;;;17.10;7.85;;;;;;;2.31;nan;102268.94;5096845;28;20028;-83
2021/10/25 03:52:41;;;;;;;18.20;7.72;;;;;;;2.27;nan;102265.78;5081076;27;20051;-83
2021/10/25 04:27:42;;;;;;;16.98;7.13;;;;;;;2.07;nan;102240.53;5099820;28;20164;-83
2021/10/25 04:30:09;;;;;;;16.65;7.80;;;;;;;2.02;nan;102233.09;5062499;28;20040;-83
2021/10/25 04:32:34;;;;;;;14.60;7.63;;;;;;;1.98;nan;102229.09;5063733;28;20032;-83
2021/10/25 04:35:00;;;;;;;13.25;6.97;;;;;;;1.97;nan;102230.06;5058864;28;20031;-82
2021/10/25 04:37:26;;;;;;;16.00;7.28;;;;;;;1.99;nan;102229.94;5056629;28;20135;-82
2021/10/25 04:39:52;;;;;;;17.10;7.68;;;;;;;1.95;nan;102228.56;5058510;28;20033;-83
2021/10/25 04:42:20;;;;;;;17.55;6.93;;;;;;;1.95;nan;102234.69;5065452;28;20180;-83
2021/10/25 04:44:47;;;;;;;13.10;7.53;;;;;;;1.93;nan;102230.53;5065619;28;20119;-83
2021/10/25 04:47:13;;;;;;;16.27;6.85;;;;;;;1.94;nan;102225.09;5076397;28;20805;-83
2021/10/25 04:49:40;;;;;;;17.70;7.35;;;;;;;1.93;nan;102220.78;5076342;28;20089;-83
2021/10/25 04:52:06;;;;;;;15.27;7.35;;;;;;;1.92;nan;102226.22;5083220;28;20032;-82
2021/10/25 04:54:31;;;;;;;14.52;7.18;;;;;;;1.89;nan;102224.72;5075520;28;20109;-83
2021/10/25 04:56:58;;;;;;;16.45;6.80;;;;;;;1.85;nan;102223.38;5071436;28;20016;-83
2021/10/25 04:59:25;;;;;;;14.82;6.90;;;;;;;1.89;nan;102224.72;5061719;28;20068;-83
2021/10/25 05:01:51;;;;;;;14.88;7.07;;;;;;;1.85;nan;102222.56;5077527;28;20561;-83
2021/10/25 05:04:16;;;;;;;18.80;8.00;;;;;;;1.88;nan;102216.97;5061508;28;20031;-83
2021/10/25 05:06:42;;;;;;;14.63;6.95;;;;;;;1.87;nan;102217.94;5059575;28;20016;-83
2021/10/25 05:09:08;;;;;;;12.50;6.68;;;;;;;1.90;nan;102217.63;5080637;28;20711;-83
2021/10/25 05:11:33;;;;;;;17.60;7.75;;;;;;;1.87;nan;102224.06;5066580;28;20020;-82
2021/10/25 05:13:59;;;;;;;16.63;6.75;;;;;;;1.89;nan;102203.59;5077857;28;20077;-81
2021/10/25 05:16:25;;;;;;;22.17;7.13;;;;;;;1.88;nan;102214.31;5082135;28;20114;-82
2021/10/25 05:18:50;;;;;;;17.55;7.75;;;;;;;1.87;nan;102210.84;5063526;28;20025;-82
2021/10/25 05:21:16;;;;;;;16.73;7.75;;;;;;;1.76;nan;102208.44;5058579;28;20028;-82
2021/10/25 05:23:42;;;;;;;18.58;8.18;;;;;;;1.69;nan;102212.69;5059082;28;20031;-82
2021/10/25 05:26:08;;;;;;;15.68;7.40;;;;;;;1.68;nan;102211.03;5062945;28;20020;-83
2021/10/25 05:28:33;;;;;;;16.05;7.88;;;;;;;1.66;nan;102216.47;5069350;28;20058;-82
2021/10/25 05:30:59;;;;;;;18.85;7.38;;;;;;;1.67;nan;102214.66;5101710;27;20032;-82
2021/10/25 05:33:25;;;;;;;16.70;7.53;;;;;;;1.63;nan;102214.16;5087805;27;20035;-82
2021/10/25 05:35:50;;;;;;;15.65;7.90;;;;;;;1.65;nan;102211.34;5105169;27;20580;-82
2021/10/25 05:38:16;;;;;;;14.40;6.78;;;;;;;1.69;nan;102204.78;5082459;28;20025;-82
2021/10/25 05:40:42;;;;;;;12.65;6.65;;;;;;;1.70;nan;102203.78;5097728;27;20032;-83
2021/10/25 05:43:08;;;;;;;14.20;7.22;;;;;;;1.71;nan;102198.34;5086673;27;20090;-83
2021/10/25 05:45:34;;;;;;;15.15;7.53;;;;;;;1.68;nan;102195.19;5097495;27;20377;-82
2021/10/25 05:47:59;;;;;;;21.33;7.13;;;;;;;1.73;nan;102192.91;5078744;28;20035;-82
2021/10/25 05:50:25;;;;;;;15.15;7.10;;;;;;;1.70;nan;102188.75;5076823;28;20035;-84
2021/10/25 05:52:50;;;;;;;14.32;7.43;;;;;;;1.63;nan;102192.19;5095478;28;20456;-82
2021/10/25 05:55:23;;;;;;;14.63;6.95;;;;;;;1.71;nan;102197.53;5082918;28;20055;-83
2021/10/25 05:57:48;;;;;;;14.80;7.43;;;;;;;1.66;nan;102197.16;5097671;28;20076;-82
2021/10/25 06:00:15;;;;;;;14.15;7.20;;;;;;;1.69;nan;102196.84;5087208;28;20058;-82
2021/10/25 06:02:42;;;;;;;14.20;7.30;;;;;;;1.72;nan;102207.94;5099468;27;20051;-82
2021/10/25 06:05:08;;;;;;;15.95;7.10;;;;;;;1.79;nan;102208.13;5081204;28;20028;-84
2021/10/25 06:07:34;;;;;;;14.30;6.25;;;;;;;1.85;nan;102215.47;5085191;27;20039;-82
2021/10/25 06:10:00;;;;;;;19.33;7.53;;;;;;;1.91;nan;102217.47;5081665;28;20456;-83
2021/10/25 06:12:26;;;;;;;15.50;6.78;;;;;;;1.93;nan;102220.78;5078829;28;20389;-82
2021/10/25 06:14:54;;;;;;;17.85;7.97;;;;;;;1.96;nan;102212.53;5084085;28;20032;-83
2021/10/25 06:17:24;;;;;;;14.25;7.13;;;;;;;2.03;nan;102210.94;5085858;27;20026;-83
2021/10/25 06:19:50;;;;;;;14.43;6.82;;;;;;;2.02;nan;102211.94;5083999;28;20534;-82
2021/10/25 06:22:18;;;;;;;27.52;8.93;;;;;;;2.12;nan;102215.28;5100986;27;20027;-83
2021/10/25 06:24:48;;;;;;;14.68;7.28;;;;;;;2.17;nan;102214.84;5096374;28;20070;-82
2021/10/25 06:27:15;;;;;;;14.15;7.07;;;;;;;2.19;nan;102214.69;5078001;28;20024;-83
2021/10/25 06:29:40;;;;;;;15.02;6.45;;;;;;;2.26;nan;102215.69;5099121;27;20488;-83
2021/10/25 06:32:06;;;;;;;20.13;6.70;;;;;;;2.35;nan;102207.66;5079791;27;20111;-76
2021/10/25 06:34:41;;;;;;;15.77;6.97;;;;;;;2.40;nan;102209.81;5100074;27;20028;-82
2021/10/25 06:37:08;;;;;;;15.45;6.68;;;;;;;2.49;nan;102202.72;5080999;27;20385;-82
2021/10/25 06:39:38;;;;;;;18.35;6.82;;;;;;;2.58;nan;102212.38;5098231;27;20492;-82
2021/10/25 06:42:06;;;;;;;15.82;7.30;;;;;;;2.63;nan;102202.97;5083122;28;20023;-83
2021/10/25 06:44:35;;;;;;;16.88;7.57;;;;;;;2.76;nan;102206.97;5084000;28;20046;-82
2021/10/25 06:47:01;;;;;;;14.15;6.38;;;;;;;2.87;nan;102204.00;5080762;28;20505;-82
2021/10/25 06:49:28;;;;;;;17.15;7.03;;;;;;;2.94;nan;102197.94;5106284;27;20071;-82
2021/10/25 06:51:55;;;;;;;15.77;6.53;;;;;;;3.01;nan;102200.75;5100989;27;20450;-82
2021/10/25 06:54:21;;;;;;;14.07;6.65;;;;;;;3.14;nan;102194.97;5075218;28;20569;-82
2021/10/25 06:56:46;;;;;;;11.38;6.60;;;;;;;3.25;nan;102200.78;5083053;28;20024;-82
2021/10/25 06:59:12;;;;;;;12.85;6.78;;;;;;;3.38;nan;102202.94;5082708;28;20397;-83
2021/10/25 07:01:38;;;;;;;13.25;6.43;;;;;;;3.53;nan;102203.94;5083402;28;20020;-82
2021/10/25 07:04:04;;;;;;;14.90;6.47;;;;;;;3.63;nan;102196.66;5076885;28;20474;-83
2021/10/25 07:06:31;;;;;;;12.98;6.32;;;;;;;3.73;nan;102204.41;5085178;28;20027;-83
2021/10/25 07:08:57;;;;;;;11.88;6.03;;;;;;;3.87;nan;102202.91;5098171;28;20016;-84
2021/10/25 07:11:23;;;;;;;12.95;5.75;;;;;;;3.93;nan;102202.22;5079797;28;20027;-82
2021/10/25 07:13:50;;;;;;;12.98;6.55;;;;;;;4.03;nan;102196.75;5078291;28;20031;-82
2021/10/25 07:16:24;;;;;;;14.80;5.57;;;;;;;4.20;nan;102195.72;5086633;28;20110;-83
2021/10/25 07:19:05;;;;;;;15.45;6.03;;;;;;;4.28;nan;102195.66;5076887;28;20101;-83
2021/10/25 08:05:18;;;;;;;11.75;5.18;;;;;;;6.22;nan;102197.94;5089689;28;20430;-55
2021/10/25 08:08:06;;;;;;;;;;;;;;;6.41;nan;102191.22;5088694;28;20393;-56
2021/10/25 08:11:14;;;;;;;10.60;4.55;;;;;;;6.45;nan;102187.16;5089958;28;19912;-56
2021/10/25 08:13:20;;;;;;;12.32;5.60;;;;;;;6.64;nan;102183.09;5078122;28;20086;-56
2021/10/25 08:15:47;;;;;;;9.65;5.10;;;;;;;6.89;nan;102183.59;5088741;28;20048;-57
2021/10/25 08:20:57;;;;;;;10.15;4.35;;;;;;;6.94;nan;102171.34;5088555;28;20035;-56
2021/10/25 08:23:22;;;;;;;8.35;4.53;;;;;;;6.87;nan;102167.81;5087286;28;20020;-55
2021/10/25 08:25:48;;;;;;;8.57;3.92;;;;;;;6.93;nan;102160.88;5070950;28;20067;-56
2021/10/25 08:28:14;;;;;;;10.20;4.68;;;;;;;6.91;nan;102166.41;5089393;28;20092;-55
2021/10/25 08:30:41;;;;;;;8.25;3.50;;;;;;;6.97;nan;102170.16;5087314;28;20545;-54
2021/10/25 08:41:00;;;;;;;8.43;4.30;;;;;;;7.46;nan;102164.88;5089004;28;20063;-54
2021/10/25 08:43:26;;;;;;;9.15;4.30;;;;;;;7.62;nan;102163.75;5087376;28;20032;-54
2021/10/25 08:45:55;;;;;;;6.53;4.40;;;;;;;7.81;nan;102162.25;5089846;28;20081;-56
2021/10/25 08:48:22;;;;;;;5.20;3.72;;;;;;;7.89;nan;102159.41;5087647;28;20572;-55
2021/10/25 08:50:48;;;;;;;5.82;3.20;;;;;;;7.98;nan;102160.94;5088375;28;20259;-56
2021/10/25 08:53:14;;;;;;;8.23;3.95;;;;;;;8.08;nan;102158.75;5091956;28;20416;-55
2021/10/25 08:55:40;;;;;;;8.07;4.00;;;;;;;8.31;nan;102150.44;5092575;28;20023;-55
2021/10/25 08:58:07;;;;;;;8.90;4.15;;;;;;;8.45;nan;102154.00;5092007;28;20020;-57
2021/10/25 09:00:43;;;;;;;6.95;3.83;;;;;;;8.50;nan;102145.41;5074322;28;20027;-55
2021/10/25 09:03:09;;;;;;;5.55;3.83;;;;;;;8.57;nan;102149.72;5090097;28;20031;-56
2021/10/25 09:05:36;;;;;;;5.45;3.28;;;;;;;8.46;nan;102155.66;5092332;28;20843;-54
2021/10/25 09:08:07;;;;;;;10.45;3.90;;;;;;;8.59;nan;102146.84;5091106;28;20107;-56
2021/10/25 09:10:44;;;;;;;13.07;4.30;;;;;;;8.39;nan;102147.59;5092213;28;20028;-56
2021/10/25 09:13:16;;;;;;;5.55;3.20;;;;;;;8.51;nan;102161.22;5090018;28;20396;-55
2021/10/25 09:15:54;;;;;;;6.40;3.88;;;;;;;8.59;nan;102149.53;5092442;28;20039;-54
2021/10/25 09:18:24;;;;;;;7.65;4.38;;;;;;;8.58;nan;102154.03;5092063;28;20086;-55
2021/10/25 09:20:53;;;;;;;6.90;4.13;;;;;;;8.69;nan;102152.66;5089383;28;20413;-54
2021/10/25 09:23:28;;;;;;;7.93;3.63;;;;;;;8.53;nan;102150.34;5091046;28;20020;-54
2021/10/25 09:25:54;;;;;;;;;;;;;;;8.79;nan;102150.41;5091515;28;20028;-57
2021/10/25 09:28:25;;;;;;;5.10;3.65;;;;;;;9.01;nan;102151.91;5091078;28;19947;-54
2021/10/25 09:30:54;;;;;;;7.28;4.28;;;;;;;9.13;nan;102144.09;5092073;28;20028;-54
2021/10/25 09:33:24;;;;;;;8.93;3.85;;;;;;;9.12;nan;102149.63;5089721;28;20038;-54
2021/10/25 09:35:57;;;;;;;10.50;4.25;;;;;;;8.94;nan;102147.56;5091013;28;20136;-56
2021/10/25 09:38:37;;;;;;;9.70;4.15;;;;;;;8.92;nan;102144.28;5090989;28;20023;-56
2021/10/25 09:48:58;;;;;;;7.22;4.30;;;;;;;9.05;nan;102149.66;5090483;28;20058;-56
2021/10/25 09:49:33;;;;;;;10.30;4.28;;;;;;;9.25;nan;102144.31;5090748;28;20036;-56
2021/10/25 09:52:01;;;;;;;8.85;3.60;;;;;;;9.41;nan;102149.25;5091102;28;20059;-55
2021/10/25 09:54:29;;;;;;;6.88;4.35;;;;;;;9.57;nan;102134.63;5089271;28;20393;-56
2021/10/25 09:57:05;;;;;;;7.28;3.47;;;;;;;9.37;nan;102137.31;5091367;28;20038;-55
2021/10/25 09:59:47;;;;;;;5.70;3.58;;;;;;;9.09;nan;102140.19;5089777;28;20042;-55
2021/10/25 10:02:14;;;;;;;8.38;3.97;;;;;;;9.04;nan;102135.44;5090277;28;20744;-57
2021/10/25 10:04:41;;;;;;;7.22;4.20;;;;;;;9.45;nan;102122.91;5090647;28;20019;-56
2021/10/25 10:07:11;;;;;;;6.43;4.03;;;;;;;9.78;nan;102129.03;5089908;28;20019;-55
2021/10/25 10:09:38;;;;;;;11.25;4.18;;;;;;;9.84;nan;102122.03;5086722;28;20485;-55
2021/10/25 10:12:04;;;;;;;9.27;4.15;;;;;;;9.92;nan;102122.63;5090314;28;20058;-54
2021/10/25 10:14:29;;;;;;;9.05;4.20;;;;;;;10.16;nan;102121.09;5091079;28;20027;-56
2021/10/25 10:16:57;;;;;;;7.13;4.00;;;;;;;10.29;nan;102118.41;5090303;28;20118;-54
2021/10/25 10:19:24;;;;;;;6.95;3.88;;;;;;;10.23;nan;102123.78;5088503;28;20036;-56
2021/10/25 10:21:55;;;;;;;8.75;3.75;;;;;;;10.07;nan;102125.06;5091384;28;20036;-56
2021/10/25 10:24:29;;;;;;;6.40;3.90;;;;;;;10.48;nan;102131.94;5089271;28;20397;-55
2021/10/25 10:26:56;;;;;;;11.48;4.38;;;;;;;10.60;nan;102127.56;5089686;28;20027;-54
2021/10/25 10:29:22;;;;;;;7.07;4.05;;;;;;;10.73;nan;102121.28;5090235;28;20032;-57
2021/10/25 10:32:00;;;;;;;7.50;3.75;;;;;;;10.80;nan;102114.03;5090237;28;20024;-57
2021/10/25 10:34:37;;;;;;;9.15;3.50;;;;;;;10.52;nan;102117.88;5089348;28;20020;-56
2021/10/25 10:37:03;;;;;;;7.90;4.32;;;;;;;10.66;nan;102120.50;5088012;28;20073;-56
2021/10/25 10:39:29;;;;;;;5.85;3.60;;;;;;;10.59;nan;102121.38;5089511;28;20044;-56
2021/10/25 10:42:01;;;;;;;7.07;3.83;;;;;;;10.75;nan;102109.28;5090472;28;20358;-56
2021/10/25 10:44:28;;;;;;;5.38;3.83;;;;;;;11.00;nan;102101.31;5088224;28;20477;-56
2021/10/25 10:46:59;;;;;;;6.25;3.80;;;;;;;11.12;nan;102106.78;5089428;28;20507;-56
2021/10/25 10:49:48;;;;;;;5.78;3.60;;;;;;;11.06;nan;102103.09;5089082;28;20024;-56
2021/10/25 10:52:31;;;;;;;9.57;4.32;;;;;;;10.81;nan;102103.09;5090264;28;20023;-56
2021/10/25 10:55:04;;;;;;;6.45;3.88;;;;;;;11.12;nan;102091.50;5089369;28;20016;-56
2021/10/25 11:00:41;;;;;;;5.38;4.18;;;;;;;11.15;nan;102099.13;5087753;28;20089;-57
2021/10/25 11:03:23;;;;;;;9.32;4.68;;;;;;;10.92;nan;102101.56;5088497;28;20355;-56
2021/10/25 11:06:09;;;;;;;6.80;3.92;;;;;;;11.26;nan;102105.63;5089122;28;20392;-55
2021/10/25 11:08:40;;;;;;;7.05;3.90;;;;;;;11.70;nan;102096.56;5088523;28;20047;-55
2021/10/25 11:11:12;;;;;;;6.80;4.40;;;;;;;12.27;nan;102097.16;5081171;28;20107;-55
2021/10/25 11:13:43;;;;;;;6.45;3.03;;;;;;;13.12;nan;102104.22;5083935;28;20028;-56
2021/10/25 11:16:17;;;;;;;7.32;3.83;;;;;;;13.86;nan;102100.03;5085521;28;20047;-56
2021/10/25 11:18:46;;;;;;;4.57;3.97;;;;;;;14.20;nan;102096.44;5085549;28;20064;-57
2021/10/25 11:21:25;;;;;;;5.80;3.70;;;;;;;14.59;nan;102093.97;5085895;28;20038;-57
2021/10/25 11:23:56;;;;;;;6.10;3.92;;;;;;;14.70;nan;102092.25;5080736;28;20350;-55
2021/10/25 11:26:50;;;;;;;11.73;4.15;;;;;;;13.94;nan;102096.13;5090855;28;20024;-56
2021/10/25 11:29:20;;;;;;;7.88;3.45;;;;;;;13.90;nan;102098.50;5081623;28;20040;-56
2021/10/25 11:31:54;;;;;;;5.50;3.92;;;;;;;13.34;nan;102102.63;5077902;28;20159;-57
2021/10/25 11:34:36;;;;;;;5.23;3.50;;;;;;;13.82;nan;102101.53;5080081;28;20028;-56
2021/10/25 11:37:09;;;;;;;5.93;4.00;;;;;;;13.69;nan;102099.94;5081846;28;20031;-56
2021/10/25 11:39:42;;;;;;;5.57;3.80;;;;;;;13.09;nan;102104.66;5077490;28;21854;-56
2021/10/25 11:42:12;;;;;;;7.68;4.10;;;;;;;12.88;nan;102106.03;5081936;28;20034;-57
2021/10/25 11:44:41;;;;;;;8.27;4.38;;;;;;;12.48;nan;102092.34;5075630;28;20024;-56
2021/10/25 11:47:25;;;;;;;10.07;3.83;;;;;;;12.17;nan;102098.72;5079732;28;20039;-56
2021/10/25 11:50:00;;;;;;;7.43;3.40;;;;;;;12.03;nan;102090.84;5076657;28;20549;-56
2021/10/25 11:52:32;;;;;;;8.88;3.83;;;;;;;12.04;nan;102095.19;5080715;28;20089;-56
2021/10/25 11:54:57;;;;;;;5.63;3.80;;;;;;;12.36;nan;102084.22;5080628;28;20142;-56
2021/10/25 11:57:23;;;;;;;7.32;3.75;;;;;;;12.22;nan;102083.59;5084218;28;20484;-56
2021/10/25 12:00:04;;;;;;;8.80;4.65;;;;;;;12.16;nan;102084.47;5078239;28;20059;-56
2021/10/25 12:02:30;;;;;;;8.05;3.53;;;;;;;11.86;nan;102079.06;5082459;28;20032;-57
2021/10/25 12:04:56;;;;;;;8.32;3.72;;;;;;;11.79;nan;102079.13;5079245;28;20076;-56
2021/10/25 12:07:23;;;;;;;8.20;3.80;;;;;;;11.52;nan;102076.94;5082037;28;20414;-56
2021/10/25 12:09:56;;;;;;;6.53;3.72;;;;;;;11.24;nan;102069.34;5060588;28;20111;-54
2021/10/25 12:12:22;;;;;;;6.80;3.30;;;;;;;11.28;nan;102076.72;5077630;28;20024;-56
2021/10/25 12:14:55;;;;;;;8.52;4.20;;;;;;;11.29;nan;102069.47;5080787;28;20392;-55
2021/10/25 12:17:26;;;;;;;10.63;4.18;;;;;;;11.20;nan;102079.69;5080013;28;21030;-54
2021/10/25 12:19:53;;;;;;;6.72;4.50;;;;;;;11.32;nan;102071.75;5081387;28;20028;-56
2021/10/25 12:22:20;;;;;;;7.68;4.57;;;;;;;11.77;nan;102075.81;5081246;28;20035;-56
2021/10/25 12:24:50;;;;;;;8.75;4.07;;;;;;;12.12;nan;102077.91;5075984;28;20524;-55
2021/10/25 12:27:20;;;;;;;7.15;4.43;;;;;;;12.97;nan;102069.69;5082184;28;20540;-57
2021/10/25 12:29:46;;;;;;;5.95;3.40;;;;;;;13.63;nan;102071.22;5081669;28;20051;-57
2021/10/25 12:32:13;;;;;;;4.88;4.03;;;;;;;13.53;nan;102074.53;5080296;28;20026;-57
2021/10/25 12:34:52;;;;;;;8.00;3.88;;;;;;;13.24;nan;102065.50;5078606;28;20036;-57
2021/10/25 12:37:20;;;;;;;7.60;3.63;;;;;;;13.72;nan;102064.44;5079550;28;20085;-57
2021/10/25 12:39:45;;;;;;;8.68;4.40;;;;;;;13.37;nan;102058.28;5077449;28;20348;-57
2021/10/25 12:42:11;;;;;;;6.00;3.88;;;;;;;13.44;nan;102054.38;5082653;28;20283;-55
2021/10/25 12:44:41;;;;;;;8.07;4.60;;;;;;;13.54;nan;102043.84;5082766;28;20036;-57
2021/10/25 12:47:13;;;;;;;7.45;3.50;;;;;;;13.53;nan;102046.78;5081846;28;20024;-56
2021/10/25 12:49:44;;;;;;;6.95;4.25;;;;;;;13.99;nan;102045.84;5080254;28;20118;-57
2021/10/25 12:52:11;;;;;;;8.55;4.07;;;;;;;13.75;nan;102038.91;5078737;28;20027;-57
2021/10/25 12:54:38;;;;;;;6.70;4.35;;;;;;;13.30;nan;102034.19;5083745;28;20028;-57
2021/10/25 12:57:23;;;;;;;7.03;3.80;;;;;;;13.22;nan;102034.50;5084457;28;20027;-57
2021/10/25 13:00:16;;;;;;;6.22;3.60;;;;;;;12.81;nan;102028.13;5078498;28;20537;-56
2021/10/25 13:02:48;;;;;;;5.68;3.20;;;;;;;12.52;nan;102027.13;5081430;28;20146;-56
2021/10/25 13:05:17;;;;;;;8.82;3.65;;;;;;;12.84;nan;102032.22;5082144;28;20071;-57
2021/10/25 13:07:54;;;;;;;6.00;3.15;;;;;;;12.77;nan;102026.97;5078097;28;20020;-57
2021/10/25 13:10:34;;;;;;;8.20;3.53;;;;;;;12.91;nan;102012.22;5081158;28;20024;-56
2021/10/25 13:13:01;;;;;;;7.80;3.95;;;;;;;13.11;nan;102019.16;5083597;28;20236;-56
2021/10/25 13:15:28;;;;;;;10.32;3.83;;;;;;;12.91;nan;102032.94;5079679;28;20506;-56
2021/10/25 13:17:56;;;;;;;7.05;3.67;;;;;;;12.89;nan;102021.59;5082448;28;20064;-57
2021/10/25 13:20:24;;;;;;;7.97;3.83;;;;;;;12.63;nan;102020.97;5083256;28;20053;-57
2021/10/25 13:22:52;;;;;;;9.60;4.20;;;;;;;12.44;nan;102022.09;5078640;28;20031;-57
2021/10/25 13:25:20;;;;;;;6.57;3.67;;;;;;;12.53;nan;102036.00;5082257;28;20250;-56
2021/10/25 13:27:46;;;;;;;7.63;3.67;;;;;;;12.68;nan;102022.97;5082734;28;20173;-57